createdAt,value
2018-07-17T00:00:24.705Z,58.74
2018-07-17T00:02:52.086Z,59.38
2018-07-17T00:05:19.449Z,59.44
2018-07-17T00:07:46.730Z,59.91
2018-07-17T00:10:14.082Z,59.54
2018-07-17T00:12:41.412Z,61.16
2018-07-17T00:15:08.611Z,60.72
2018-07-17T00:17:36.303Z,62.44
2018-07-17T00:20:05.040Z,61.88
2018-07-17T00:22:32.649Z,62.67
2018-07-17T00:25:00.118Z,64.17
2018-07-17T00:27:27.493Z,61.18
2018-07-17T00:29:54.886Z,62.47
2018-07-17T00:32:22.171Z,63.97
2018-07-17T00:34:49.512Z,61.82
2018-07-17T00:37:16.838Z,62.82
2018-07-17T00:39:44.140Z,62.59
2018-07-17T00:42:11.419Z,62.14
2018-07-17T00:44:38.672Z,63.02
2018-07-17T00:47:06.054Z,63.54
2018-07-17T00:49:33.374Z,64.05
2018-07-17T00:52:00.849Z,64.19
2018-07-17T00:54:28.140Z,64.86
2018-07-17T00:56:55.515Z,64.03
2018-07-17T00:59:22.845Z,63.92
2018-07-17T01:01:55.749Z,64.48
2018-07-17T01:04:28.691Z,64.10
2018-07-17T01:07:01.714Z,64.21
2018-07-17T01:09:34.630Z,65.24
2018-07-17T01:12:08.413Z,64.55
2018-07-17T01:14:47.162Z,64.97
2018-07-17T01:17:15.196Z,64.99
2018-07-17T01:19:42.723Z,65.45
2018-07-17T01:22:10.007Z,64.88
2018-07-17T01:24:37.339Z,65.26
2018-07-17T01:27:04.695Z,64.35
2018-07-17T01:29:32.038Z,65.06
2018-07-17T01:31:59.345Z,64.73
2018-07-17T01:34:26.740Z,64.43
2018-07-17T01:36:54.189Z,65.48
2018-07-17T01:39:21.611Z,64.48
2018-07-17T01:41:48.849Z,64.68
2018-07-17T01:44:16.953Z,64.15
2018-07-17T01:46:45.341Z,63.94
2018-07-17T01:49:13.025Z,64.03
2018-07-17T01:51:40.422Z,63.96
2018-07-17T01:54:07.753Z,64.30
2018-07-17T01:56:35.169Z,64.62
2018-07-17T01:59:02.567Z,64.65
2018-07-17T02:01:29.898Z,64.66
2018-07-17T02:03:57.165Z,64.25
2018-07-17T02:06:24.531Z,64.21
2018-07-17T02:08:51.842Z,64.29
2018-07-17T02:11:19.157Z,64.52
2018-07-17T02:13:46.542Z,64.08
2018-07-17T02:16:13.911Z,64.48
2018-07-17T02:18:41.305Z,64.34
2018-07-17T02:21:08.785Z,64.12
2018-07-17T02:23:36.048Z,63.41
2018-07-17T02:26:03.396Z,63.17
2018-07-17T02:28:30.787Z,64.75
2018-07-17T02:30:58.061Z,63.38
2018-07-17T02:33:25.362Z,63.63
2018-07-17T02:35:53.224Z,63.40
2018-07-17T02:38:20.501Z,63.72
2018-07-17T02:40:47.775Z,63.48
2018-07-17T02:43:15.082Z,63.99
2018-07-17T02:45:42.474Z,64.58
2018-07-17T02:48:09.735Z,64.60
2018-07-17T02:50:37.100Z,64.31
2018-07-17T02:53:04.397Z,64.77
2018-07-17T02:55:32.155Z,64.86
2018-07-17T02:57:59.476Z,64.85
2018-07-17T03:00:26.784Z,64.90
2018-07-17T03:02:54.418Z,64.36
2018-07-17T03:05:21.729Z,65.54
2018-07-17T03:07:49.042Z,64.36
2018-07-17T03:10:16.456Z,64.44
2018-07-17T03:12:43.687Z,64.79
2018-07-17T03:15:10.955Z,65.07
2018-07-17T03:17:38.562Z,65.59
2018-07-17T03:20:05.960Z,65.68
2018-07-17T03:22:33.329Z,65.83
2018-07-17T03:25:00.684Z,65.91
2018-07-17T03:27:28.236Z,66.76
2018-07-17T03:29:55.558Z,66.17
2018-07-17T03:32:22.866Z,65.48
2018-07-17T03:34:50.223Z,66.38
2018-07-17T03:37:17.543Z,66.90
2018-07-17T03:39:44.919Z,67.49
2018-07-17T03:42:12.199Z,66.19
2018-07-17T03:44:39.546Z,66.91
2018-07-17T03:47:06.843Z,67.38
2018-07-17T03:49:34.138Z,66.91
2018-07-17T03:52:01.422Z,67.13
2018-07-17T03:54:28.752Z,66.82
2018-07-17T03:56:56.598Z,67.17
2018-07-17T03:59:23.997Z,66.75
2018-07-17T04:01:51.611Z,67.34
2018-07-17T04:04:19.093Z,66.97
2018-07-17T04:06:46.381Z,67.26
2018-07-17T04:09:13.748Z,67.52
2018-07-17T04:11:40.958Z,67.63
2018-07-17T04:14:08.205Z,67.93
2018-07-17T04:16:40.334Z,66.91
2018-07-17T04:19:08.031Z,67.38
2018-07-17T04:21:35.768Z,67.98
2018-07-17T04:24:03.430Z,68.31
2018-07-17T04:26:30.699Z,68.58
2018-07-17T04:28:58.652Z,68.23
2018-07-17T04:31:25.954Z,68.02
2018-07-17T04:33:53.355Z,68.96
2018-07-17T04:36:20.650Z,68.25
2018-07-17T04:38:47.986Z,68.43
2018-07-17T04:41:15.319Z,68.10
2018-07-17T04:43:42.645Z,68.95
2018-07-17T04:46:09.920Z,68.91
2018-07-17T04:48:37.376Z,69.43
2018-07-17T04:51:04.706Z,68.96
2018-07-17T04:53:31.969Z,69.57
2018-07-17T04:55:59.297Z,69.77
2018-07-17T04:58:26.620Z,70.50
2018-07-17T05:00:53.937Z,70.81
2018-07-17T05:03:21.242Z,70.43
2018-07-17T05:05:48.670Z,71.48
2018-07-17T05:08:16.111Z,70.90
2018-07-17T05:10:48.658Z,71.58
2018-07-17T05:13:16.057Z,71.10
2018-07-17T05:15:43.399Z,72.03
2018-07-17T05:18:10.979Z,72.07
2018-07-17T05:20:38.324Z,72.03
2018-07-17T05:23:05.610Z,72.74
2018-07-17T05:25:32.856Z,72.77
2018-07-17T05:28:00.123Z,72.88
2018-07-17T05:30:27.465Z,73.09
2018-07-17T05:32:54.746Z,73.62
2018-07-17T05:35:22.702Z,73.44
2018-07-17T05:37:50.832Z,73.13
2018-07-17T05:40:18.258Z,72.66
2018-07-17T05:42:45.640Z,73.54
2018-07-17T05:45:12.989Z,73.73
2018-07-17T05:47:40.649Z,73.29
2018-07-17T05:50:08.643Z,73.14
2018-07-17T05:52:35.962Z,72.65
2018-07-17T05:55:03.452Z,72.84
2018-07-17T05:57:31.389Z,73.10
2018-07-17T05:59:58.914Z,72.60
2018-07-17T06:02:26.596Z,72.47
2018-07-17T11:16:17.202Z,36.33
2018-07-17T11:18:45.551Z,35.71
2018-07-17T11:21:12.872Z,35.71
2018-07-17T11:23:40.450Z,36.40
2018-07-17T11:26:07.999Z,36.64
2018-07-17T11:28:35.596Z,37.13
2018-07-17T11:31:03.030Z,36.20
2018-07-17T11:33:30.450Z,35.86
2018-07-17T11:35:57.813Z,35.69
2018-07-17T11:38:25.092Z,35.29
2018-07-17T11:40:52.578Z,31.71
2018-07-17T11:43:20.563Z,32.87
2018-07-17T11:45:48.062Z,32.53
2018-07-17T11:48:15.344Z,32.67
2018-07-17T11:50:42.639Z,33.44
2018-07-17T11:53:10.413Z,31.88
2018-07-17T11:55:37.725Z,30.42
2018-07-17T11:58:05.375Z,28.68
2018-07-17T12:00:32.683Z,28.53
2018-07-17T12:03:00.261Z,28.49
2018-07-17T12:05:27.685Z,27.45
2018-07-17T12:07:55.309Z,27.84
2018-07-17T12:10:22.658Z,28.14
2018-07-17T12:12:50.072Z,28.77
2018-07-17T12:15:17.297Z,28.53
2018-07-17T12:17:44.630Z,27.33
2018-07-17T12:20:12.527Z,28.84
2018-07-17T12:22:39.985Z,29.87
2018-07-17T12:25:07.337Z,28.65
2018-07-17T12:27:34.641Z,27.32
2018-07-17T12:30:02.210Z,28.24
2018-07-17T12:32:30.274Z,29.32
2018-07-17T12:34:57.966Z,28.45
2018-07-17T12:37:25.234Z,26.77
2018-07-17T12:39:52.608Z,27.72
2018-07-17T12:42:19.977Z,27.16
2018-07-17T12:44:48.236Z,27.27
2018-07-17T12:47:15.701Z,28.73
2018-07-17T12:49:43.041Z,27.54
2018-07-17T12:52:11.225Z,28.22
2018-07-17T12:54:38.608Z,27.84
2018-07-17T12:57:06.254Z,27.84
2018-07-17T12:59:33.591Z,28.41
2018-07-17T13:02:01.026Z,30.42
2018-07-17T13:04:28.456Z,28.35
2018-07-17T13:06:55.754Z,29.67
2018-07-17T13:09:23.118Z,29.27
2018-07-17T13:11:50.438Z,29.59
2018-07-17T13:14:17.885Z,30.86
2018-07-17T13:16:45.393Z,30.48
2018-07-17T13:19:13.168Z,31.33
2018-07-17T13:21:41.217Z,31.32
2018-07-17T13:24:09.099Z,32.02
2018-07-17T13:26:37.076Z,32.46
2018-07-17T13:29:04.527Z,33.05
2018-07-17T13:31:31.947Z,34.13
2018-07-17T13:33:59.572Z,34.19
2018-07-17T13:36:26.918Z,34.74
2018-07-17T13:38:55.064Z,34.79
2018-07-17T13:41:22.402Z,35.54
2018-07-17T13:43:50.409Z,35.39
2018-07-17T13:46:17.696Z,37.11
2018-07-17T13:48:45.085Z,36.75
2018-07-17T13:51:12.693Z,36.79
2018-07-17T13:53:40.102Z,37.65
2018-07-17T13:56:07.603Z,38.32
2018-07-17T13:58:35.135Z,37.77
2018-07-17T14:01:02.584Z,38.14
2018-07-17T14:03:30.755Z,38.56
2018-07-17T14:05:58.514Z,38.96
2018-07-17T14:08:26.038Z,39.90
2018-07-17T14:10:53.771Z,40.28
2018-07-17T14:13:21.401Z,40.89
2018-07-17T14:15:48.910Z,41.26
2018-07-17T14:18:16.404Z,39.43
2018-07-17T14:20:43.951Z,37.17
2018-07-17T14:23:11.843Z,35.69
2018-07-17T14:25:39.258Z,34.74
2018-07-17T14:28:06.666Z,33.57
2018-07-17T14:30:33.983Z,33.56
2018-07-17T14:33:01.554Z,31.89
2018-07-17T14:35:30.027Z,32.43
2018-07-17T14:37:58.526Z,31.45
2018-07-17T14:40:26.187Z,31.55
2018-07-17T14:42:54.168Z,32.08
2018-07-17T14:45:21.527Z,32.23
2018-07-17T14:47:49.245Z,32.37
2018-07-17T14:50:16.868Z,33.15
2018-07-17T14:52:44.311Z,32.41
2018-07-17T14:55:11.818Z,31.12
2018-07-17T14:57:39.731Z,34.04
2018-07-17T15:00:08.753Z,33.39
2018-07-17T15:02:36.106Z,35.52
2018-07-17T15:05:03.918Z,35.32
2018-07-17T15:07:31.274Z,36.25
2018-07-17T15:09:59.300Z,35.47
2018-07-17T15:12:26.882Z,35.20
2018-07-17T15:14:54.322Z,34.92
2018-07-17T15:17:22.153Z,36.92
2018-07-17T15:19:49.527Z,37.09
2018-07-17T15:22:16.875Z,35.41
2018-07-17T15:24:44.327Z,36.39
2018-07-17T15:27:12.362Z,36.48
2018-07-17T15:29:39.949Z,38.97
2018-07-17T15:32:07.867Z,38.19
2018-07-17T15:34:35.144Z,38.38
2018-07-17T15:37:02.444Z,39.49
2018-07-17T15:39:29.980Z,34.92
2018-07-17T15:41:57.527Z,37.18
2018-07-17T15:44:24.928Z,36.18
2018-07-17T15:46:52.207Z,35.44
2018-07-17T15:49:19.636Z,34.86
2018-07-17T15:51:47.007Z,35.45
2018-07-17T15:54:14.489Z,35.16
2018-07-17T15:56:41.730Z,34.42
2018-07-17T15:59:09.033Z,34.09
2018-07-17T16:01:36.502Z,32.58
2018-07-17T16:04:03.893Z,33.03
2018-07-17T16:06:31.913Z,32.55
2018-07-17T16:08:59.430Z,33.24
2018-07-17T16:11:28.333Z,33.32
2018-07-17T16:13:55.949Z,32.65
2018-07-17T16:16:23.403Z,33.84
2018-07-17T16:18:51.518Z,34.96
2018-07-17T16:21:19.032Z,37.10
2018-07-17T16:23:46.379Z,38.59
2018-07-17T16:26:14.703Z,40.51
2018-07-17T16:28:42.034Z,40.80
2018-07-17T16:31:09.569Z,42.17
2018-07-17T16:33:37.032Z,42.07
2018-07-17T16:36:04.981Z,42.83
2018-07-17T16:38:32.348Z,43.47
2018-07-17T16:40:59.904Z,44.27
2018-07-17T16:43:27.433Z,45.20
2018-07-17T16:45:54.984Z,45.21
2018-07-17T16:48:22.347Z,44.85
2018-07-17T16:50:50.044Z,45.16
2018-07-17T16:53:17.371Z,44.21
2018-07-17T16:55:44.850Z,43.79
2018-07-17T16:58:12.273Z,44.60
2018-07-17T17:00:39.890Z,45.67
2018-07-17T17:03:07.595Z,46.03
2018-07-17T17:05:35.160Z,46.56
2018-07-17T17:08:03.380Z,46.30
2018-07-17T17:10:31.113Z,48.16
2018-07-17T17:12:58.634Z,48.48
2018-07-17T17:15:27.650Z,49.28
2018-07-17T17:17:55.971Z,48.05
2018-07-17T17:20:23.666Z,47.83
2018-07-17T17:22:51.199Z,48.19
2018-07-17T17:25:18.829Z,49.27
2018-07-17T17:27:46.545Z,47.92
2018-07-17T17:30:14.087Z,47.87
2018-07-17T17:32:41.481Z,48.16
2018-07-17T17:35:09.129Z,48.95
2018-07-17T17:37:37.291Z,48.45
2018-07-17T17:40:04.657Z,49.06
2018-07-17T17:42:32.805Z,48.84
2018-07-17T17:45:00.584Z,48.38
2018-07-17T17:47:27.984Z,48.30
2018-07-17T17:49:55.570Z,49.41
2018-07-17T17:52:23.467Z,49.69
2018-07-17T17:54:50.963Z,49.28
2018-07-17T17:57:18.628Z,49.63
2018-07-17T17:59:46.070Z,49.00
2018-07-17T18:02:13.455Z,49.83
2018-07-17T18:04:40.936Z,49.75
2018-07-17T18:07:08.585Z,49.50
2018-07-17T18:09:36.571Z,50.13
2018-07-17T18:12:04.991Z,49.85
2018-07-17T18:14:32.376Z,49.83
2018-07-17T18:16:59.909Z,49.75
2018-07-17T18:19:27.628Z,49.83
2018-07-17T18:21:55.476Z,50.17
2018-07-17T18:24:22.798Z,48.93
2018-07-17T18:26:50.371Z,48.55
2018-07-17T18:29:17.746Z,49.69
2018-07-17T18:31:45.982Z,50.61
2018-07-17T18:34:13.471Z,50.76
2018-07-17T18:36:40.901Z,50.20
2018-07-17T18:39:08.541Z,50.35
2018-07-17T18:41:35.948Z,49.59
2018-07-17T18:44:03.232Z,49.83
2018-07-17T18:46:30.604Z,50.45
2018-07-17T18:48:58.390Z,51.11
2018-07-17T18:51:25.801Z,51.63
2018-07-17T18:53:53.283Z,52.21
2018-07-17T18:56:21.394Z,52.47
2018-07-17T18:58:48.816Z,52.81
2018-07-17T19:01:17.050Z,53.45
2018-07-17T19:03:44.395Z,53.76
2018-07-17T19:06:11.870Z,53.74
2018-07-17T19:08:39.500Z,54.96
2018-07-17T19:11:06.836Z,54.39
2018-07-17T19:13:34.189Z,55.53
2018-07-17T19:16:02.207Z,55.58
2018-07-17T19:18:29.591Z,55.64
2018-07-17T19:20:57.158Z,55.08
2018-07-17T19:23:24.660Z,55.89
2018-07-17T19:25:52.256Z,56.79
2018-07-17T19:28:20.389Z,55.91
2018-07-17T19:30:48.573Z,57.19
2018-07-17T19:33:16.115Z,57.83
2018-07-17T19:35:43.605Z,57.60
2018-07-17T19:38:10.930Z,57.81
2018-07-17T19:40:39.180Z,57.63
2018-07-17T19:43:06.532Z,57.75
2018-07-17T19:45:33.957Z,58.03
2018-07-17T19:48:01.326Z,57.87
2018-07-17T19:50:28.724Z,58.65
2018-07-17T19:52:56.474Z,58.24
2018-07-17T19:55:24.847Z,57.88
2018-07-17T19:57:52.196Z,58.74
2018-07-17T20:00:19.660Z,60.11
2018-07-17T20:02:47.047Z,58.82
2018-07-17T20:05:14.359Z,59.61
2018-07-17T20:07:41.908Z,58.57
2018-07-17T20:10:09.223Z,59.48
2018-07-17T20:12:36.582Z,59.23
2018-07-17T20:15:04.151Z,59.08
2018-07-17T20:17:31.503Z,59.92
2018-07-17T20:19:59.209Z,60.16
2018-07-17T20:22:26.676Z,59.56
2018-07-17T20:24:54.071Z,59.98
2018-07-17T20:27:21.469Z,59.55
2018-07-17T20:29:48.808Z,60.87
2018-07-17T20:32:16.197Z,61.17
2018-07-17T20:34:43.576Z,61.85
2018-07-17T20:37:11.044Z,61.69
2018-07-17T20:39:38.549Z,61.50
2018-07-17T20:42:05.969Z,61.68
2018-07-17T20:44:33.325Z,61.85
2018-07-17T20:47:00.885Z,61.69
2018-07-17T20:49:28.261Z,63.42
2018-07-17T20:51:55.628Z,61.94
2018-07-17T20:54:23.116Z,61.93
2018-07-17T20:56:50.532Z,62.58
2018-07-17T20:59:17.877Z,65.37
2018-07-17T21:01:45.247Z,63.10
2018-07-17T21:04:12.623Z,65.55
2018-07-17T21:06:40.071Z,64.15
2018-07-17T21:09:08.845Z,63.96
2018-07-17T21:11:36.149Z,64.49
2018-07-17T21:14:03.476Z,65.30
2018-07-17T21:16:31.198Z,64.30
2018-07-17T21:18:58.546Z,64.93
2018-07-17T21:21:25.934Z,65.66
2018-07-17T21:23:53.314Z,65.39
2018-07-17T21:26:20.660Z,66.98
2018-07-17T21:28:48.147Z,66.75
2018-07-17T21:31:15.603Z,68.06
2018-07-17T21:33:43.596Z,69.30
2018-07-17T21:36:11.196Z,68.18
2018-07-17T21:38:39.117Z,68.63
2018-07-17T21:41:06.483Z,69.86
2018-07-17T21:43:33.830Z,68.09
2018-07-17T21:46:01.196Z,68.16
2018-07-17T21:48:28.937Z,71.69
2018-07-17T21:50:57.221Z,69.83
2018-07-17T21:53:24.501Z,71.10
2018-07-17T21:55:51.901Z,69.34
2018-07-17T21:58:19.295Z,70.42
2018-07-17T22:00:46.600Z,69.47
2018-07-17T22:03:13.965Z,70.44
2018-07-17T22:05:41.479Z,71.07
2018-07-17T22:08:09.032Z,69.59
2018-07-17T22:10:36.344Z,69.79
2018-07-17T22:13:03.850Z,69.47
2018-07-17T22:15:31.188Z,69.72
2018-07-17T22:17:58.439Z,70.81
2018-07-17T22:20:26.025Z,72.05
2018-07-17T22:22:53.330Z,72.22
2018-07-17T22:25:20.590Z,70.57
2018-07-17T22:27:47.920Z,71.23
2018-07-17T22:30:15.254Z,70.93
2018-07-17T22:32:42.710Z,71.42
2018-07-17T22:35:10.080Z,71.49
2018-07-17T22:37:37.440Z,74.23
2018-07-17T22:40:04.873Z,71.14
2018-07-17T22:42:32.160Z,72.04
2018-07-17T22:44:59.615Z,73.24
2018-07-17T22:47:26.901Z,75.17
2018-07-17T22:49:54.348Z,74.25
2018-07-17T22:52:21.603Z,72.93
2018-07-17T22:54:49.092Z,73.21
2018-07-17T22:57:16.415Z,74.40
2018-07-17T22:59:44.840Z,73.18
2018-07-17T23:02:12.196Z,74.27
2018-07-17T23:04:39.426Z,73.34
2018-07-17T23:07:06.728Z,74.93
2018-07-17T23:09:34.054Z,73.87
2018-07-17T23:12:01.381Z,75.58
2018-07-17T23:14:28.668Z,76.74
2018-07-17T23:16:55.989Z,77.46
2018-07-17T23:19:23.367Z,74.46
2018-07-17T23:21:50.697Z,76.20
2018-07-17T23:24:18.096Z,76.16
2018-07-17T23:26:45.345Z,74.24
2018-07-17T23:29:12.603Z,77.02
2018-07-17T23:31:39.940Z,76.73
2018-07-17T23:34:07.196Z,77.29
2018-07-17T23:36:34.595Z,78.16
2018-07-17T23:39:01.871Z,77.42
2018-07-17T23:41:29.213Z,75.22
2018-07-17T23:43:56.545Z,75.55
2018-07-17T23:46:23.886Z,75.92
2018-07-17T23:48:51.196Z,76.22
2018-07-17T23:51:18.546Z,75.85
2018-07-17T23:53:45.835Z,76.00
2018-07-17T23:56:13.326Z,76.41
2018-07-17T23:58:40.777Z,75.98
